Time;durP1;ratioP1;P1;durP2;ratioP2;P2;SDS_P1;SDS_P2;PMS_P1;PMS_P2;Temp;Humidity;BMP_temperature;BMP_pressure;BME280_temperature;BME280_humidity;BME280_pressure;Samples;Min_cycle;Max_cycle;Signal;HPM_P1;HPM_P2
2023/08/16 00:01:03;;;;;;;3.17;2.53;;;;;;;;;;5022457;28;20046;-63
2023/08/16 00:03:31;;;;;;;5.32;2.97;;;;;;;;;;5022486;28;20210;-61
2023/08/16 00:06:09;;;;;;;6.28;3.00;;;;;;;;;;5025817;28;20053;-62
2023/08/16 00:08:37;;;;;;;3.85;2.60;;;;;;;;;;5027864;28;20054;-59
2023/08/16 00:11:07;;;;;;;4.88;3.60;;;;;;;;;;5022859;28;20049;-63
2023/08/16 00:13:38;;;;;;;4.43;3.25;;;;;;;;;;5026632;28;20041;-60
2023/08/16 00:16:06;;;;;;;3.92;2.78;;;;;;;;;;5024198;28;20064;-61
2023/08/16 00:18:35;;;;;;;7.10;2.97;;;;;;;;;;5028933;28;20061;-60
2023/08/16 00:21:03;;;;;;;6.75;3.00;;;;;;;;;;5024212;28;20518;-60
2023/08/16 00:23:32;;;;;;;6.03;3.05;;;;;;;;;;5024603;28;20069;-60
2023/08/16 00:26:00;;;;;;;5.72;3.00;;;;;;;;;;5024314;28;20084;-62
2023/08/16 00:28:30;;;;;;;7.45;3.58;;;;;;;;;;5026428;28;20052;-61
2023/08/16 00:30:58;;;;;;;4.53;2.80;;;;;;;;;;5024018;28;20555;-60
2023/08/16 00:33:27;;;;;;;4.50;3.20;;;;;;;;;;5026647;28;20278;-61
2023/08/16 00:35:55;;;;;;;5.70;2.60;;;;;;;;;;5024672;28;20065;-61
2023/08/16 00:38:23;;;;;;;5.85;3.25;;;;;;;;;;5020126;28;21170;-61
2023/08/16 00:40:52;;;;;;;4.50;3.05;;;;;;;;;;5023864;28;20156;-61
2023/08/16 00:43:21;;;;;;;4.55;2.88;;;;;;;;;;5021487;28;20049;-60
2023/08/16 00:45:50;;;;;;;3.70;2.80;;;;;;;;;;5022868;28;20048;-61
2023/08/16 00:48:19;;;;;;;4.40;2.88;;;;;;;;;;5023716;28;20506;-61
2023/08/16 00:50:48;;;;;;;3.47;2.75;;;;;;;;;;5028038;28;20159;-62
2023/08/16 00:53:18;;;;;;;3.75;2.88;;;;;;;;;;5029786;28;20123;-60
2023/08/16 00:55:47;;;;;;;6.25;2.70;;;;;;;;;;5023462;28;20530;-61
2023/08/16 00:58:15;;;;;;;3.58;2.75;;;;;;;;;;5023997;28;20080;-59
2023/08/16 01:00:44;;;;;;;7.68;3.30;;;;;;;;;;5026238;28;20096;-63
2023/08/16 01:03:13;;;;;;;3.55;2.60;;;;;;;;;;5027009;22;20058;-70
2023/08/16 01:05:42;;;;;;;4.57;2.88;;;;;;;;;;4998406;28;20133;-68
2023/08/16 01:08:10;;;;;;;4.40;3.17;;;;;;;;;;5005785;28;20045;-68
2023/08/16 01:10:52;;;;;;;6.70;3.10;;;;;;;;;;5008796;28;20133;-68
2023/08/16 01:13:23;;;;;;;4.30;2.95;;;;;;;;;;5005354;28;20042;-68
2023/08/16 01:15:52;;;;;;;4.18;3.10;;;;;;;;;;5002017;28;20121;-68
2023/08/16 01:18:23;;;;;;;5.93;3.00;;;;;;;;;;5002046;28;20077;-69
2023/08/16 01:20:53;;;;;;;4.43;2.60;;;;;;;;;;5006743;28;20315;-69
2023/08/16 01:23:26;;;;;;;9.40;3.45;;;;;;;;;;5007126;28;20129;-69
2023/08/16 01:25:57;;;;;;;8.57;3.35;;;;;;;;;;5003610;28;20577;-68
2023/08/16 01:28:27;;;;;;;4.32;3.30;;;;;;;;;;5005312;28;20433;-69
2023/08/16 01:30:59;;;;;;;5.05;3.00;;;;;;;;;;5008203;28;20161;-68
2023/08/16 01:33:27;;;;;;;4.35;2.88;;;;;;;;;;5005918;28;20457;-68
2023/08/16 01:35:56;;;;;;;5.68;2.63;;;;;;;;;;5008016;28;20076;-69
2023/08/16 01:38:25;;;;;;;6.75;3.10;;;;;;;;;;5007546;28;20119;-68
2023/08/16 01:40:56;;;;;;;3.08;2.42;;;;;;;;;;5003830;28;20066;-68
2023/08/16 01:43:25;;;;;;;6.57;2.50;;;;;;;;;;5003300;28;20105;-68
2023/08/16 01:45:55;;;;;;;4.50;2.72;;;;;;;;;;5006453;28;20049;-69
2023/08/16 01:48:24;;;;;;;5.60;2.80;;;;;;;;;;5000948;28;20224;-69
2023/08/16 01:50:53;;;;;;;5.65;2.80;;;;;;;;;;5001273;28;20099;-68
2023/08/16 01:53:21;;;;;;;3.85;2.97;;;;;;;;;;5007810;28;20049;-69
2023/08/16 01:55:50;;;;;;;3.38;2.58;;;;;;;;;;5003420;28;20518;-69
2023/08/16 01:58:18;;;;;;;6.07;2.80;;;;;;;;;;5002442;28;20081;-68
2023/08/16 02:00:46;;;;;;;4.00;2.90;;;;;;;;;;5005895;28;20547;-68
2023/08/16 02:03:16;;;;;;;3.78;3.00;;;;;;;;;;5001394;28;20050;-69
2023/08/16 02:05:45;;;;;;;6.90;2.75;;;;;;;;;;5005607;28;20110;-68
2023/08/16 02:08:13;;;;;;;4.93;2.50;;;;;;;;;;5001025;28;20078;-68
2023/08/16 02:10:41;;;;;;;5.47;3.50;;;;;;;;;;5004785;28;20046;-68
2023/08/16 02:13:10;;;;;;;4.57;2.97;;;;;;;;;;5002766;28;20103;-69
2023/08/16 02:15:38;;;;;;;7.50;2.90;;;;;;;;;;5004815;28;20049;-68
2023/08/16 02:18:10;;;;;;;6.28;3.10;;;;;;;;;;5000813;28;20136;-68
2023/08/16 02:20:41;;;;;;;3.30;2.65;;;;;;;;;;5001433;28;20121;-68
2023/08/16 02:23:10;;;;;;;3.50;2.65;;;;;;;;;;5008063;28;20091;-68
2023/08/16 02:25:39;;;;;;;4.82;2.78;;;;;;;;;;5002495;28;20050;-69
2023/08/16 02:28:08;;;;;;;4.53;2.92;;;;;;;;;;5001112;28;20129;-68
2023/08/16 02:30:36;;;;;;;3.33;2.47;;;;;;;;;;5001463;28;20164;-68
2023/08/16 02:33:05;;;;;;;10.27;2.60;;;;;;;;;;5005797;28;20100;-69
2023/08/16 02:35:33;;;;;;;3.53;2.67;;;;;;;;;;5007337;28;20129;-68
2023/08/16 02:38:03;;;;;;;3.20;2.58;;;;;;;;;;5005737;28;20148;-68
2023/08/16 02:40:31;;;;;;;4.28;2.60;;;;;;;;;;5004978;28;20050;-68
2023/08/16 02:42:59;;;;;;;4.43;2.95;;;;;;;;;;5008451;28;20566;-68
2023/08/16 02:45:28;;;;;;;2.97;2.67;;;;;;;;;;5002719;28;20081;-68
2023/08/16 02:47:57;;;;;;;4.45;2.97;;;;;;;;;;5005320;28;20045;-68
2023/08/16 02:50:25;;;;;;;7.18;3.05;;;;;;;;;;5005823;28;20473;-68
2023/08/16 02:52:54;;;;;;;3.15;2.42;;;;;;;;;;5004097;28;20046;-68
2023/08/16 02:55:23;;;;;;;5.05;2.60;;;;;;;;;;5002636;28;20132;-68
2023/08/16 02:57:52;;;;;;;5.25;2.95;;;;;;;;;;5004855;28;20570;-69
2023/08/16 03:00:21;;;;;;;5.55;2.92;;;;;;;;;;5004547;28;20045;-68
2023/08/16 03:02:49;;;;;;;4.10;2.72;;;;;;;;;;4999348;28;20143;-68
2023/08/16 03:05:18;;;;;;;5.97;3.22;;;;;;;;;;5004106;28;20205;-69
2023/08/16 03:07:46;;;;;;;5.30;2.85;;;;;;;;;;5002157;28;20465;-69
2023/08/16 03:10:14;;;;;;;6.55;2.58;;;;;;;;;;5005187;28;20046;-70
2023/08/16 03:12:44;;;;;;;4.10;2.33;;;;;;;;;;5000057;28;20522;-69
2023/08/16 03:15:12;;;;;;;4.55;2.65;;;;;;;;;;5001845;28;20049;-70
2023/08/16 03:17:41;;;;;;;2.95;2.40;;;;;;;;;;5005129;28;20159;-69
2023/08/16 03:20:10;;;;;;;4.68;3.10;;;;;;;;;;5004967;28;20638;-70
2023/08/16 03:22:39;;;;;;;5.95;2.75;;;;;;;;;;4998081;28;20070;-69
2023/08/16 03:25:08;;;;;;;5.93;3.00;;;;;;;;;;5000814;28;20461;-67
2023/08/16 03:27:36;;;;;;;5.40;2.70;;;;;;;;;;5003468;28;20054;-67
2023/08/16 03:30:07;;;;;;;3.85;2.78;;;;;;;;;;4997619;28;20477;-67
2023/08/16 03:32:35;;;;;;;4.00;2.50;;;;;;;;;;5003017;28;20171;-67
2023/08/16 03:35:04;;;;;;;5.32;2.95;;;;;;;;;;4999985;28;20554;-67
2023/08/16 03:37:32;;;;;;;3.58;2.75;;;;;;;;;;5004290;28;20132;-67
2023/08/16 03:40:01;;;;;;;4.30;2.53;;;;;;;;;;5002350;28;20128;-67
2023/08/16 03:42:29;;;;;;;4.50;2.83;;;;;;;;;;5004870;28;20635;-67
2023/08/16 03:44:57;;;;;;;4.30;2.60;;;;;;;;;;5004096;28;20038;-67
2023/08/16 03:47:29;;;;;;;5.72;2.80;;;;;;;;;;5007472;28;20558;-68
2023/08/16 03:49:59;;;;;;;5.45;3.13;;;;;;;;;;5004867;28;20342;-67
2023/08/16 03:52:28;;;;;;;4.97;2.70;;;;;;;;;;5004417;28;20565;-67
2023/08/16 03:54:56;;;;;;;3.95;2.85;;;;;;;;;;5005010;28;20161;-67
2023/08/16 03:57:24;;;;;;;4.40;3.08;;;;;;;;;;5008067;28;20050;-67
2023/08/16 03:59:53;;;;;;;5.03;3.10;;;;;;;;;;5008582;28;20557;-67
2023/08/16 04:02:22;;;;;;;4.72;2.95;;;;;;;;;;5001901;28;20135;-67
2023/08/16 04:04:53;;;;;;;4.05;2.97;;;;;;;;;;5006052;28;20462;-67
2023/08/16 04:07:22;;;;;;;4.22;2.83;;;;;;;;;;5001837;28;20046;-68
2023/08/16 04:09:51;;;;;;;7.18;2.55;;;;;;;;;;5007375;28;20046;-67
2023/08/16 04:12:19;;;;;;;5.75;2.90;;;;;;;;;;5003352;28;20045;-67
2023/08/16 04:14:47;;;;;;;5.47;3.22;;;;;;;;;;5003472;28;20096;-67
2023/08/16 04:17:16;;;;;;;4.63;2.60;;;;;;;;;;5007424;28;20124;-67
2023/08/16 04:19:44;;;;;;;4.53;3.08;;;;;;;;;;5009845;28;20442;-67
2023/08/16 04:22:14;;;;;;;7.63;3.40;;;;;;;;;;5005122;28;20053;-67
2023/08/16 04:24:42;;;;;;;9.52;3.60;;;;;;;;;;5004601;28;20049;-67
2023/08/16 04:27:10;;;;;;;6.65;2.58;;;;;;;;;;5004546;28;20136;-67
2023/08/16 04:29:39;;;;;;;4.22;3.05;;;;;;;;;;5003109;28;20136;-66
2023/08/16 04:32:07;;;;;;;4.70;2.75;;;;;;;;;;4999672;28;20128;-67
2023/08/16 04:34:36;;;;;;;4.25;2.80;;;;;;;;;;5005200;28;20037;-67
2023/08/16 04:37:04;;;;;;;4.03;2.60;;;;;;;;;;5002169;28;20123;-67
2023/08/16 04:39:34;;;;;;;3.22;2.60;;;;;;;;;;5006547;28;20082;-67
2023/08/16 04:42:02;;;;;;;6.07;2.75;;;;;;;;;;5004152;28;20733;-67
2023/08/16 04:44:30;;;;;;;6.47;2.70;;;;;;;;;;5003633;28;20073;-67
2023/08/16 04:46:59;;;;;;;3.88;2.70;;;;;;;;;;5004630;28;20073;-67
2023/08/16 04:49:28;;;;;;;3.22;2.72;;;;;;;;;;5000855;28;20065;-67
2023/08/16 04:51:56;;;;;;;5.25;3.20;;;;;;;;;;5002468;28;20053;-66
2023/08/16 04:54:25;;;;;;;4.53;2.90;;;;;;;;;;5002417;28;20046;-67
2023/08/16 04:56:54;;;;;;;3.75;3.00;;;;;;;;;;5005165;28;20521;-67
2023/08/16 04:59:23;;;;;;;7.30;3.28;;;;;;;;;;5000489;28;20146;-66
2023/08/16 05:01:51;;;;;;;7.35;3.33;;;;;;;;;;5001366;28;20108;-67
2023/08/16 05:04:19;;;;;;;4.07;2.72;;;;;;;;;;4999429;28;20484;-67
2023/08/16 05:06:48;;;;;;;5.10;3.35;;;;;;;;;;5003544;28;20056;-67
2023/08/16 05:09:16;;;;;;;5.78;2.97;;;;;;;;;;5002787;28;20517;-66
2023/08/16 05:11:44;;;;;;;3.70;2.83;;;;;;;;;;5003473;28;20081;-66
2023/08/16 05:14:14;;;;;;;6.45;2.92;;;;;;;;;;4999083;28;20054;-67
2023/08/16 05:16:43;;;;;;;4.78;2.88;;;;;;;;;;5000083;28;20042;-67
2023/08/16 05:19:11;;;;;;;6.57;2.80;;;;;;;;;;5001386;28;20208;-67
2023/08/16 05:21:39;;;;;;;6.55;3.10;;;;;;;;;;5000096;28;20076;-67
2023/08/16 05:24:08;;;;;;;4.65;2.90;;;;;;;;;;4997698;28;20074;-67
2023/08/16 05:26:37;;;;;;;5.03;3.10;;;;;;;;;;5001682;28;20153;-67
2023/08/16 05:29:05;;;;;;;3.38;2.78;;;;;;;;;;5000404;28;20105;-66
2023/08/16 05:31:36;;;;;;;5.85;3.00;;;;;;;;;;5001506;28;20092;-67
2023/08/16 05:34:05;;;;;;;4.38;2.83;;;;;;;;;;5001243;28;20054;-67
2023/08/16 05:36:33;;;;;;;6.72;3.25;;;;;;;;;;5004195;28;20116;-67
2023/08/16 05:39:03;;;;;;;6.43;2.83;;;;;;;;;;5002655;28;20046;-67
2023/08/16 05:41:31;;;;;;;8.48;3.15;;;;;;;;;;5001042;28;20070;-67
2023/08/16 05:43:59;;;;;;;6.10;3.10;;;;;;;;;;5002109;28;20124;-67
2023/08/16 05:46:28;;;;;;;4.63;2.92;;;;;;;;;;5002936;28;20123;-67
2023/08/16 05:49:00;;;;;;;5.93;2.97;;;;;;;;;;5001701;28;20054;-68
2023/08/16 05:51:29;;;;;;;10.63;3.80;;;;;;;;;;5004998;28;20045;-68
2023/08/16 05:53:57;;;;;;;5.20;2.78;;;;;;;;;;5003586;28;20626;-68
2023/08/16 05:56:25;;;;;;;6.65;2.83;;;;;;;;;;5000944;28;20074;-68
2023/08/16 05:58:54;;;;;;;6.00;2.95;;;;;;;;;;5000694;28;20454;-68
2023/08/16 06:01:22;;;;;;;4.95;2.78;;;;;;;;;;5002687;28;20046;-68
2023/08/16 06:03:50;;;;;;;7.20;3.10;;;;;;;;;;5003548;28;20046;-68
2023/08/16 06:06:21;;;;;;;5.80;3.05;;;;;;;;;;5005953;28;20078;-68
2023/08/16 06:08:49;;;;;;;6.25;3.28;;;;;;;;;;5001998;28;20147;-68
2023/08/16 06:11:17;;;;;;;7.82;2.88;;;;;;;;;;5003349;28;20049;-68
2023/08/16 06:13:46;;;;;;;5.85;3.40;;;;;;;;;;5002201;28;20074;-69
2023/08/16 06:16:14;;;;;;;7.53;2.92;;;;;;;;;;5005664;28;20454;-68
2023/08/16 06:18:43;;;;;;;6.07;3.05;;;;;;;;;;5002044;28;20046;-68
2023/08/16 06:21:11;;;;;;;4.47;2.70;;;;;;;;;;5002602;28;20042;-68
2023/08/16 06:23:42;;;;;;;4.57;3.22;;;;;;;;;;5007122;28;20127;-68
2023/08/16 06:26:11;;;;;;;3.38;2.70;;;;;;;;;;5002980;28;20053;-68
2023/08/16 06:28:39;;;;;;;4.55;3.53;;;;;;;;;;5003660;28;20107;-68
2023/08/16 06:31:08;;;;;;;6.68;2.90;;;;;;;;;;5003325;28;20095;-69
2023/08/16 06:33:37;;;;;;;5.18;3.08;;;;;;;;;;5002835;28;20069;-70
2023/08/16 06:36:05;;;;;;;3.40;3.05;;;;;;;;;;5004233;28;20141;-70
2023/08/16 06:38:34;;;;;;;5.70;3.28;;;;;;;;;;5002586;28;20045;-70
2023/08/16 06:41:04;;;;;;;6.20;3.30;;;;;;;;;;4999961;28;20115;-69
2023/08/16 06:43:32;;;;;;;5.30;2.88;;;;;;;;;;5001209;28;20365;-70
2023/08/16 06:46:00;;;;;;;3.75;2.63;;;;;;;;;;5004256;28;20148;-70
2023/08/16 06:48:29;;;;;;;8.73;3.50;;;;;;;;;;5003682;28;20072;-70
2023/08/16 06:50:57;;;;;;;6.90;2.90;;;;;;;;;;5002576;28;20499;-70
2023/08/16 06:53:27;;;;;;;5.07;3.13;;;;;;;;;;5005123;28;20455;-73
2023/08/16 06:55:55;;;;;;;4.85;2.92;;;;;;;;;;4999622;28;20061;-69
2023/08/16 06:58:25;;;;;;;9.73;3.30;;;;;;;;;;5001376;28;20038;-70
2023/08/16 07:00:56;;;;;;;8.15;3.15;;;;;;;;;;5000246;28;20507;-70
2023/08/16 07:03:24;;;;;;;4.72;3.30;;;;;;;;;;5003321;28;20120;-71
2023/08/16 07:05:54;;;;;;;5.55;2.95;;;;;;;;;;5001809;28;20518;-71
2023/08/16 07:08:22;;;;;;;4.63;3.17;;;;;;;;;;5000368;28;20053;-71
2023/08/16 07:10:51;;;;;;;6.10;3.15;;;;;;;;;;5002457;28;20462;-71
2023/08/16 07:13:19;;;;;;;5.53;3.42;;;;;;;;;;5001922;28;20268;-70
2023/08/16 07:15:49;;;;;;;5.65;3.30;;;;;;;;;;5004777;28;20057;-72
2023/08/16 07:18:17;;;;;;;8.77;3.67;;;;;;;;;;5000810;28;20046;-69
2023/08/16 07:20:46;;;;;;;4.25;2.78;;;;;;;;;;5004654;28;20049;-68
2023/08/16 07:23:14;;;;;;;4.20;3.35;;;;;;;;;;5002541;28;20172;-71
2023/08/16 07:25:42;;;;;;;5.40;3.05;;;;;;;;;;5004842;28;20049;-71
2023/08/16 07:28:11;;;;;;;10.90;3.47;;;;;;;;;;5003385;28;20444;-72
2023/08/16 07:30:40;;;;;;;6.53;2.90;;;;;;;;;;5004172;28;20123;-72
2023/08/16 07:33:11;;;;;;;5.38;3.28;;;;;;;;;;5007090;28;20146;-72
2023/08/16 07:35:39;;;;;;;4.18;2.88;;;;;;;;;;5001458;28;20298;-71
2023/08/16 07:38:07;;;;;;;8.20;3.15;;;;;;;;;;5000675;28;20101;-71
2023/08/16 07:40:36;;;;;;;4.35;2.92;;;;;;;;;;4999469;28;20588;-73
2023/08/16 07:43:04;;;;;;;3.35;2.63;;;;;;;;;;4997880;28;20042;-72
2023/08/16 07:45:33;;;;;;;5.95;3.15;;;;;;;;;;5000637;28;20046;-73
2023/08/16 07:48:01;;;;;;;4.25;2.65;;;;;;;;;;5004861;28;20053;-73
2023/08/16 07:50:31;;;;;;;7.97;3.00;;;;;;;;;;5001137;28;20045;-74
2023/08/16 07:52:59;;;;;;;4.40;2.70;;;;;;;;;;5003967;28;20056;-74
2023/08/16 07:55:33;;;;;;;6.88;2.95;;;;;;;;;;4999373;28;20054;-75
2023/08/16 07:58:02;;;;;;;4.35;2.70;;;;;;;;;;4997890;28;20046;-71
2023/08/16 08:00:31;;;;;;;6.60;2.35;;;;;;;;;;4999398;28;20171;-74
2023/08/16 08:02:59;;;;;;;4.82;2.78;;;;;;;;;;5001405;28;20620;-73
2023/08/16 08:05:30;;;;;;;4.70;2.60;;;;;;;;;;5001957;28;20057;-72
2023/08/16 08:08:00;;;;;;;3.78;2.63;;;;;;;;;;5000637;28;20108;-72
2023/08/16 08:10:30;;;;;;;4.03;2.70;;;;;;;;;;5001681;28;20045;-72
2023/08/16 08:12:58;;;;;;;8.82;2.97;;;;;;;;;;5003288;28;20046;-72
2023/08/16 08:15:27;;;;;;;3.38;2.53;;;;;;;;;;4995670;28;20046;-72
2023/08/16 08:17:55;;;;;;;3.88;2.40;;;;;;;;;;5005359;28;20042;-72
2023/08/16 08:20:24;;;;;;;8.15;2.88;;;;;;;;;;5001112;28;20052;-72
2023/08/16 08:22:52;;;;;;;5.43;2.42;;;;;;;;;;5007819;28;20108;-71
2023/08/16 08:25:22;;;;;;;3.25;2.38;;;;;;;;;;5006655;28;20442;-71
2023/08/16 08:27:50;;;;;;;5.60;2.78;;;;;;;;;;5007184;28;20451;-71
2023/08/16 08:30:19;;;;;;;4.55;2.42;;;;;;;;;;5009681;28;20046;-72
2023/08/16 08:32:47;;;;;;;8.02;2.67;;;;;;;;;;5009847;28;20042;-72
2023/08/16 08:35:16;;;;;;;4.70;2.58;;;;;;;;;;5006827;28;20499;-72
2023/08/16 08:37:44;;;;;;;4.60;2.53;;;;;;;;;;5007367;28;20403;-72
2023/08/16 08:40:12;;;;;;;3.58;2.40;;;;;;;;;;5006747;28;20565;-71
2023/08/16 08:42:43;;;;;;;3.08;2.17;;;;;;;;;;5003451;28;20065;-71
2023/08/16 08:45:15;;;;;;;2.85;1.70;;;;;;;;;;5006811;28;20455;-72
2023/08/16 08:47:44;;;;;;;3.30;2.80;;;;;;;;;;5009121;28;20049;-70
2023/08/16 08:50:13;;;;;;;4.18;2.05;;;;;;;;;;5010986;28;20046;-71
2023/08/16 08:52:42;;;;;;;3.95;1.80;;;;;;;;;;5010070;28;20561;-71
2023/08/16 08:55:10;;;;;;;4.28;2.42;;;;;;;;;;5010741;28;20461;-70
2023/08/16 08:57:39;;;;;;;4.35;1.98;;;;;;;;;;5010207;28;20081;-70
2023/08/16 09:00:14;;;;;;;3.83;2.25;;;;;;;;;;5009532;28;20095;-69
2023/08/16 09:02:43;;;;;;;;;;;;;;;;;;5011002;28;20060;-69
2023/08/16 09:05:12;;;;;;;3.00;2.10;;;;;;;;;;5008043;28;20016;-69
2023/08/16 09:07:41;;;;;;;8.18;2.10;;;;;;;;;;5009088;28;20046;-69
2023/08/16 09:10:10;;;;;;;2.33;1.75;;;;;;;;;;5007008;28;20405;-70
2023/08/16 09:12:39;;;;;;;5.20;2.45;;;;;;;;;;5010340;28;20086;-69
2023/08/16 09:15:08;;;;;;;3.53;2.08;;;;;;;;;;5007881;28;20515;-71
2023/08/16 09:17:38;;;;;;;4.97;2.03;;;;;;;;;;5009385;28;20053;-70
2023/08/16 09:20:07;;;;;;;3.17;2.17;;;;;;;;;;5008477;28;20060;-70
2023/08/16 09:22:35;;;;;;;5.88;1.90;;;;;;;;;;5005114;28;20127;-70
2023/08/16 09:25:04;;;;;;;3.58;1.92;;;;;;;;;;5008361;28;20092;-70
2023/08/16 09:27:35;;;;;;;2.63;1.88;;;;;;;;;;5009629;28;20108;-71
2023/08/16 09:30:04;;;;;;;2.30;2.00;;;;;;;;;;5008070;28;20498;-71
2023/08/16 09:32:34;;;;;;;3.85;2.40;;;;;;;;;;5009514;28;20424;-72
2023/08/16 09:35:05;;;;;;;4.30;2.45;;;;;;;;;;5004997;28;20046;-72
2023/08/16 09:37:33;;;;;;;3.75;1.85;;;;;;;;;;5004690;28;20498;-71
2023/08/16 09:40:04;;;;;;;6.72;2.40;;;;;;;;;;5005038;28;20045;-71
2023/08/16 09:42:33;;;;;;;4.35;2.10;;;;;;;;;;5009827;28;20062;-71
2023/08/16 09:45:04;;;;;;;3.40;1.88;;;;;;;;;;5006653;28;20050;-72
2023/08/16 09:47:33;;;;;;;2.78;1.80;;;;;;;;;;5009988;28;20136;-72
2023/08/16 09:50:09;;;;;;;2.55;1.88;;;;;;;;;;5006620;28;20612;-71
2023/08/16 09:52:37;;;;;;;3.47;2.00;;;;;;;;;;5005702;28;20050;-71
2023/08/16 09:55:07;;;;;;;2.28;1.67;;;;;;;;;;5007695;28;20494;-71
2023/08/16 09:57:36;;;;;;;2.85;1.98;;;;;;;;;;5004440;28;20050;-71
2023/08/16 10:00:06;;;;;;;2.50;1.80;;;;;;;;;;5005503;28;20046;-71
2023/08/16 10:02:35;;;;;;;3.30;2.30;;;;;;;;;;5008930;28;20050;-71
2023/08/16 10:05:08;;;;;;;6.13;1.95;;;;;;;;;;5007187;28;20037;-72
2023/08/16 10:07:38;;;;;;;3.22;2.00;;;;;;;;;;5007079;28;20513;-72
2023/08/16 10:10:10;;;;;;;2.30;1.73;;;;;;;;;;5004454;28;20045;-74
2023/08/16 10:12:38;;;;;;;4.28;2.15;;;;;;;;;;5007560;28;20085;-75
2023/08/16 10:15:07;;;;;;;2.85;2.00;;;;;;;;;;5007091;28;20100;-75
2023/08/16 10:17:37;;;;;;;4.05;2.13;;;;;;;;;;5007435;28;20507;-76
2023/08/16 10:20:11;;;;;;;2.30;1.83;;;;;;;;;;5005207;28;20077;-76
2023/08/16 10:22:40;;;;;;;3.35;2.00;;;;;;;;;;5009065;28;20482;-74
2023/08/16 10:25:11;;;;;;;3.92;2.30;;;;;;;;;;5007096;28;20100;-74
2023/08/16 10:27:40;;;;;;;7.63;2.55;;;;;;;;;;5007182;28;20054;-74
2023/08/16 10:30:10;;;;;;;2.42;2.22;;;;;;;;;;5005679;28;20056;-74
2023/08/16 10:32:40;;;;;;;6.38;2.42;;;;;;;;;;5005963;28;20042;-75
2023/08/16 10:35:10;;;;;;;4.80;2.38;;;;;;;;;;5008477;28;20045;-74
2023/08/16 10:37:39;;;;;;;4.07;2.40;;;;;;;;;;5007305;28;20395;-74
2023/08/16 10:40:16;;;;;;;2.22;2.03;;;;;;;;;;5006954;28;20078;-74
2023/08/16 10:42:54;;;;;;;4.93;2.30;;;;;;;;;;5006196;28;20502;-74
2023/08/16 10:45:23;;;;;;;2.97;1.70;;;;;;;;;;5006015;28;20057;-74
2023/08/16 10:47:53;;;;;;;4.50;1.90;;;;;;;;;;5006646;28;20045;-73
2023/08/16 10:50:32;;;;;;;2.83;1.85;;;;;;;;;;5005705;28;20061;-74
2023/08/16 10:53:00;;;;;;;2.75;1.80;;;;;;;;;;5008492;28;20050;-74
2023/08/16 10:55:29;;;;;;;2.90;1.83;;;;;;;;;;5006950;28;20050;-75
2023/08/16 10:57:58;;;;;;;2.50;1.60;;;;;;;;;;5007904;28;20100;-75
2023/08/16 11:00:32;;;;;;;2.78;1.80;;;;;;;;;;5005842;28;20050;-75
2023/08/16 11:03:03;;;;;;;2.28;1.58;;;;;;;;;;5008151;28;20057;-75
2023/08/16 11:05:35;;;;;;;3.05;1.85;;;;;;;;;;5008103;28;20112;-76
2023/08/16 11:08:11;;;;;;;3.47;1.83;;;;;;;;;;5008016;28;20080;-73
2023/08/16 11:10:40;;;;;;;2.42;1.80;;;;;;;;;;5006043;28;20095;-72
2023/08/16 11:13:10;;;;;;;4.85;1.92;;;;;;;;;;5005881;28;20112;-72
2023/08/16 11:15:38;;;;;;;2.08;1.58;;;;;;;;;;5004410;28;20714;-72
2023/08/16 11:18:07;;;;;;;2.08;1.50;;;;;;;;;;5006550;28;20135;-72
2023/08/16 11:20:39;;;;;;;3.22;1.75;;;;;;;;;;5008019;28;20056;-72
2023/08/16 11:23:08;;;;;;;2.03;1.77;;;;;;;;;;5005909;28;20432;-75
2023/08/16 11:25:39;;;;;;;4.28;1.98;;;;;;;;;;5006207;28;20052;-73
2023/08/16 11:28:08;;;;;;;2.25;1.80;;;;;;;;;;5008372;28;20108;-72
2023/08/16 11:30:36;;;;;;;3.30;2.15;;;;;;;;;;5002946;28;20104;-72
2023/08/16 11:33:05;;;;;;;3.88;1.95;;;;;;;;;;5006464;28;20120;-72
2023/08/16 11:35:36;;;;;;;3.40;2.20;;;;;;;;;;5007498;28;20054;-72
2023/08/16 11:38:06;;;;;;;3.28;2.13;;;;;;;;;;5008030;28;20246;-72
2023/08/16 11:40:35;;;;;;;1.85;1.75;;;;;;;;;;5004763;28;20104;-72
2023/08/16 11:43:05;;;;;;;2.47;1.60;;;;;;;;;;5004687;28;20104;-71
2023/08/16 11:45:33;;;;;;;2.40;1.80;;;;;;;;;;5005771;28;20078;-72
2023/08/16 11:48:04;;;;;;;7.45;1.80;;;;;;;;;;5006836;28;20038;-73
2023/08/16 11:50:34;;;;;;;3.70;1.48;;;;;;;;;;5007347;28;20596;-71
2023/08/16 11:53:03;;;;;;;3.28;1.70;;;;;;;;;;5006594;28;20181;-71
2023/08/16 11:55:33;;;;;;;2.90;1.80;;;;;;;;;;5003225;28;20046;-72
2023/08/16 11:58:05;;;;;;;5.63;1.85;;;;;;;;;;5005953;28;20060;-74
2023/08/16 12:00:34;;;;;;;3.40;2.08;;;;;;;;;;5006471;28;20057;-72
2023/08/16 12:03:03;;;;;;;2.90;1.77;;;;;;;;;;5008091;28;20088;-72
2023/08/16 12:05:36;;;;;;;2.17;1.75;;;;;;;;;;5009236;28;20061;-72
2023/08/16 12:08:05;;;;;;;3.63;2.20;;;;;;;;;;5009000;28;20050;-73
2023/08/16 12:10:36;;;;;;;3.30;1.80;;;;;;;;;;5009736;28;20490;-72
2023/08/16 12:13:14;;;;;;;2.95;2.33;;;;;;;;;;5010620;28;20157;-72
2023/08/16 12:15:43;;;;;;;6.78;2.13;;;;;;;;;;5007350;28;20514;-75
2023/08/16 12:18:14;;;;;;;4.32;1.70;;;;;;;;;;5011474;28;20053;-71
2023/08/16 12:20:43;;;;;;;3.53;2.03;;;;;;;;;;5011396;28;20140;-72
2023/08/16 12:23:11;;;;;;;3.03;1.80;;;;;;;;;;5009460;28;20053;-72
2023/08/16 12:25:41;;;;;;;3.70;1.83;;;;;;;;;;5008808;28;20050;-72
2023/08/16 12:28:09;;;;;;;3.65;1.88;;;;;;;;;;5005980;28;20446;-72
2023/08/16 12:30:38;;;;;;;1.98;1.65;;;;;;;;;;5010352;28;20050;-72
2023/08/16 12:33:06;;;;;;;3.55;2.15;;;;;;;;;;5009695;28;20537;-72
2023/08/16 12:35:35;;;;;;;2.17;1.77;;;;;;;;;;5008669;28;20457;-76
2023/08/16 12:38:10;;;;;;;6.03;1.98;;;;;;;;;;5006451;28;20056;-71
2023/08/16 12:40:41;;;;;;;2.17;1.80;;;;;;;;;;5010065;28;20168;-70
2023/08/16 12:43:11;;;;;;;4.30;2.00;;;;;;;;;;5011148;28;20060;-71
2023/08/16 12:45:39;;;;;;;5.63;2.35;;;;;;;;;;5008291;28;20194;-71
2023/08/16 12:48:08;;;;;;;3.13;2.25;;;;;;;;;;5011131;28;20038;-71
2023/08/16 12:50:37;;;;;;;3.15;2.10;;;;;;;;;;5011352;28;20104;-72
2023/08/16 12:53:07;;;;;;;2.10;1.83;;;;;;;;;;5011416;28;20129;-73
2023/08/16 12:55:39;;;;;;;2.22;2.03;;;;;;;;;;5008333;28;20521;-72
2023/08/16 12:58:11;;;;;;;5.13;2.00;;;;;;;;;;5010189;28;20561;-71
2023/08/16 13:00:43;;;;;;;2.72;1.90;;;;;;;;;;5010122;28;20104;-71
2023/08/16 13:03:14;;;;;;;2.25;1.77;;;;;;;;;;5010269;28;20080;-71
2023/08/16 13:05:56;;;;;;;2.75;2.08;;;;;;;;;;5006211;28;20111;-71
2023/08/16 13:08:35;;;;;;;3.35;2.13;;;;;;;;;;5007107;28;20402;-72
2023/08/16 13:11:06;;;;;;;3.85;1.92;;;;;;;;;;5008025;28;20054;-72
2023/08/16 13:13:39;;;;;;;3.10;1.90;;;;;;;;;;5008774;28;20042;-71
2023/08/16 13:16:08;;;;;;;2.92;1.92;;;;;;;;;;5010526;28;20122;-71
2023/08/16 13:18:41;;;;;;;2.72;2.30;;;;;;;;;;5007877;28;20073;-71
2023/08/16 13:21:13;;;;;;;2.42;1.90;;;;;;;;;;5007447;28;20049;-71
2023/08/16 13:23:47;;;;;;;4.38;2.53;;;;;;;;;;5010077;28;20193;-71
2023/08/16 13:26:32;;;;;;;2.85;1.90;;;;;;;;;;5010072;28;20068;-71
2023/08/16 13:29:09;;;;;;;2.95;2.10;;;;;;;;;;5008878;28;20061;-71
2023/08/16 13:31:52;;;;;;;5.30;2.00;;;;;;;;;;5007814;28;20616;-71
2023/08/16 13:34:23;;;;;;;4.40;1.90;;;;;;;;;;5010035;28;20065;-71
2023/08/16 13:36:54;;;;;;;3.25;1.85;;;;;;;;;;5003114;28;20530;-71
2023/08/16 13:39:25;;;;;;;2.42;1.90;;;;;;;;;;5004682;28;20060;-71
2023/08/16 13:41:57;;;;;;;2.92;1.80;;;;;;;;;;5006821;28;20046;-70
2023/08/16 13:44:30;;;;;;;4.95;2.03;;;;;;;;;;5005929;28;20096;-70
2023/08/16 13:47:03;;;;;;;4.00;2.20;;;;;;;;;;5010113;28;20046;-71
2023/08/16 13:49:33;;;;;;;3.20;1.80;;;;;;;;;;5006739;28;20053;-70
2023/08/16 13:52:01;;;;;;;2.60;1.70;;;;;;;;;;5008009;28;20077;-71
2023/08/16 13:54:30;;;;;;;4.10;2.25;;;;;;;;;;5005501;28;20116;-70
2023/08/16 13:57:01;;;;;;;2.35;2.08;;;;;;;;;;5008219;28;20132;-71
2023/08/16 13:59:31;;;;;;;3.08;2.30;;;;;;;;;;5009369;28;20514;-72
2023/08/16 14:01:59;;;;;;;2.72;2.10;;;;;;;;;;5009255;28;20434;-70
2023/08/16 14:04:28;;;;;;;3.55;1.88;;;;;;;;;;5006203;28;20498;-70
2023/08/16 14:06:56;;;;;;;4.45;1.83;;;;;;;;;;5009022;28;20458;-72
2023/08/16 14:09:25;;;;;;;3.00;2.00;;;;;;;;;;5008348;28;20081;-76
2023/08/16 14:11:53;;;;;;;3.35;2.30;;;;;;;;;;5007535;28;20053;-74
2023/08/16 14:14:21;;;;;;;4.43;2.03;;;;;;;;;;5005044;28;20120;-75
2023/08/16 14:16:51;;;;;;;2.95;2.28;;;;;;;;;;5008975;28;20042;-74
2023/08/16 14:19:19;;;;;;;2.83;2.00;;;;;;;;;;5008801;28;20062;-75
2023/08/16 14:21:48;;;;;;;4.50;2.42;;;;;;;;;;5006825;28;20044;-73
2023/08/16 14:24:17;;;;;;;3.70;2.30;;;;;;;;;;5006315;28;20050;-73
2023/08/16 14:26:46;;;;;;;2.75;2.28;;;;;;;;;;5002559;28;20054;-72
2023/08/16 14:29:15;;;;;;;3.05;2.10;;;;;;;;;;5008556;28;20049;-72
2023/08/16 14:31:43;;;;;;;2.75;2.00;;;;;;;;;;5008886;28;20521;-72
2023/08/16 14:34:13;;;;;;;2.45;1.88;;;;;;;;;;5007003;28;20060;-72
2023/08/16 14:36:42;;;;;;;2.25;2.05;;;;;;;;;;5006342;28;20042;-71
2023/08/16 14:39:10;;;;;;;4.15;2.28;;;;;;;;;;5007206;28;20053;-70
2023/08/16 14:41:39;;;;;;;4.50;2.47;;;;;;;;;;5006844;28;20046;-72
2023/08/16 14:44:07;;;;;;;4.15;2.25;;;;;;;;;;5008429;28;20062;-74
2023/08/16 14:46:36;;;;;;;2.45;2.03;;;;;;;;;;5008880;28;20066;-74
2023/08/16 14:49:04;;;;;;;2.75;2.08;;;;;;;;;;5005126;28;20392;-72
2023/08/16 14:51:34;;;;;;;3.90;2.53;;;;;;;;;;5006142;28;20112;-72
2023/08/16 14:54:03;;;;;;;6.35;2.30;;;;;;;;;;5007726;28;20301;-72
2023/08/16 14:56:32;;;;;;;2.25;2.05;;;;;;;;;;5005523;28;20045;-71